외국계 의료기 회사
 모집부문  Product Specialist
 모집인원  0명
 업무내용  - Marketing supports
- Field activities
 지원자격 - 경력: 2 years in Equipment field
- 언어: English communication skill
- 전공: Biomedical Engineering 및 관련학과
- 요건: Good computer skill (Excel, Word, Power point) and RI license preferred but not required
 근  무 지  서울
 ......  2년이상
 ......  대졸이상(4년)
 ......  무관
 연령제한  -
 ......  Nego.
 모집기간  ~ 12. 6. 20 까지
 전형방법  1차 서류전형 2차 면접
 제출서류  국,영문 이력서 및 경력 중심 자기소개서
 ......  고재익
 전화번호  02-597-1780
 기타사항  [접수방법] E-mail : jiko01@kohuman.com (이메일 접수만 가능)
 설립연도  -
 기업규모  -
 회사설명  외국계 의료기 회사

총게시물: 835 총페이지: 28 현재페이지: 9
번호 모집부분 경력 연봉 모집기간 작성일 조회
595   IT specialist 5년이상 Nego. ~ 12. 6 29 까지 12-06-11 5044
594   Product Specialist 2년이상 Nego. ~ 12. 6. 20 까지 12-06-08 4452
593   변리사 1년이상 Nego. ~ 12. 6. 29 까지 12-05-23 5166
592   변호사 1년이상 Nego. ~ 12. 8. 19 까지 12-05-23 4841
591   안전, 환경, 보건 담당자 3년이상 Nego. ~ 12. 5. 31 까지 12-05-18 3321
590   Clinical Project Manager(임상) 10년이상 Nego. ~ 12. 8. 19 까지 12-05-14 4901
589   Accounting 4년이상 Nego. ~ 12. 5. 28 까지 12-05-14 4307
588   Researcher(책임/선임 연구원) 2년이상 Nego. ~ 12. 5. 28 까지 12-05-11 4811
587   QA(Quality Assurance) 담당 3년이상 Nego. ~ 12. 7. 10 까지 12-05-11 4708
586   Biostatistics & Data Managemen 10년이상 Nego. ~ 12. 5. 28 까지 12-05-11 4912
585   PV(pharmacovigilance) 4년이상 Nego. ~ 12. 8. 19 까지 12-05-11 5043
584   RA(Regulatory Affairs) 담당 간부 8년이상 Nego. ~ 12. 5. 28 까지 12-05-11 4603
583   Finance Manager 10년이상 Nego. ~ 12. 5. 18 까지 12-05-07 4841
582   HR Manager 10년이상 Nego. ~ 12. 7. 20 까지 12-05-07 4863
581   연구원 모집 3년이상 Nego. ~12. 4. 30 까지 12-04-23 4964
580   HR Manager 7년이상 Nego. ~ 12. 4. 28 까지 12-04-16 4927
579   Finance Manager 7년이상 Nego. ~ 12. 4. 28 까지 12-04-16 4488
578   Product Manager 5년이상 Nego. ~ 12. 4. 5 까지 12-03-22 4338
577   Technical Marketing Manager 5년이상 Nego. ~ 12. 3. 28 까지 12-03-16 3228
576   Clinical Project Manager 5년이상 Nego. ~ 12. 3. 31까지 12-03-16 4993
575   Marketing 담당 / 신입 or 경력 신입 Nego. ~ 12. 3. 28 까지 12-03-16 4576
574   Pharmacovigillance Specialist 3년이상 Nego. ~ 2012. 3. 24 까지 12-03-15 4911
573   QA Specialist 3년이상 Nego. ~ 12. 3. 24 까지 12-03-15 4795
572   Technical Sales Specialist 5년이상 Nego. ~ 12. 3. 30 까지 12-03-13 3090
571   Drug Product Manager 3년이상 Nego. ~ 12. 3. 20 까지 12-03-06 4774
570   Bioassay Scientist 3년이상 Nego. ~ 12. 3. 20 까지 12-03-06 5051
569   National Sales Manager 10년이상 Nego. ~ 12. 3. 18 까지 12-03-06 4559
568   Sales Rep. (의료기영업) / 신입 or 경력 신입 Nego. ~ 12. 3. 28 까지 12-03-06 4522
567   Sales Representative 2년이상 Nego. ~ 12. 2. 23 까지 12-02-09 4715
566   Product Manager 5년이상 Nego. ~12. 2. 18 까지 12-02-08 4770

prev [prev 10]  1  2  3  4  5  6  7  8  9  10  [next 10] next